EST,Max TemperatureF,Mean TemperatureF,Min TemperatureF,Max Dew PointF,MeanDew PointF,Min DewpointF,Max Humidity, Mean Humidity, Min Humidity, Max Sea Level PressureIn, Mean Sea Level PressureIn, Min Sea Level PressureIn, Max VisibilityMiles, Mean VisibilityMiles, Min VisibilityMiles, Max Wind SpeedMPH, Mean Wind SpeedMPH, Max Gust SpeedMPH,PrecipitationIn, CloudCover, Events, WindDirDegrees
2012-11-1,59,48,37,18,-0,-42,45,20,4,29.99,29.94,29.89,10.0,10.0,10.0,10,7,21,0.00,0,,301
2012-11-2,73,54,35,34,27,14,70,38,19,30.02,29.98,29.92,10.0,10.0,10.0,13,2,21,0.00,1,,290
2012-11-3,77,62,46,43,31,14,55,34,12,30.12,30.05,30.01,10.0,10.0,10.0,7,1,,0.00,0,,262
2012-11-4,64,54,44,52,43,34,72,58,39,30.04,30.02,29.99,10.0,10.0,7.0,8,3,17,0.00,2,Rain,292
2012-11-5,64,50,35,34,22,1,75,38,9,30.09,30.03,29.97,10.0,10.0,10.0,8,3,,0.00,1,Rain,277
2012-11-6,51,46,42,41,36,30,87,68,47,30.01,29.96,29.93,10.0,8.0,2.5,15,6,23,0.00,8,Rain,75
2012-11-7,46,42,39,41,38,36,87,82,71,30.04,29.94,29.89,10.0,5.6,0.5,8,2,,0.00,5,Fog-Rain,314
2012-11-8,60,48,35,36,32,27,87,60,27,30.19,30.13,30.03,10.0,8.2,2.0,9,3,,0.00,0,,304
2012-11-9,66,50,35,32,24,-6,81,46,5,30.30,30.23,30.18,10.0,9.5,2.0,6,1,,0.00,0,,304
2012-11-10,69,50,32,32,22,-13,93,44,4,30.36,30.31,30.26,10.0,9.1,2.5,9,2,,0.00,0,,136
2012-11-11,66,54,42,45,37,30,66,50,35,30.44,30.36,30.32,10.0,9.8,7.0,13,4,18,0.00,3,,106
2012-11-12,64,54,44,57,50,41,88,76,55,30.32,30.27,30.19,10.0,7.6,2.5,12,6,21,0.00,7,Rain,144
2012-11-13,59,47,35,37,25,16,81,52,21,30.33,30.28,30.24,10.0,10.0,10.0,12,6,18,0.00,1,,312
2012-11-14,51,45,39,28,23,19,61,42,28,30.40,30.33,30.28,10.0,10.0,10.0,16,5,24,0.00,3,,77
2012-11-15,57,49,41,37,33,30,81,58,38,30.31,30.26,30.21,10.0,9.7,5.0,9,4,,0.00,6,,104
2012-11-16,60,46,32,41,31,19,93,64,20,30.33,30.29,30.25,10.0,6.1,0.2,6,1,,0.00,1,Fog,63
2012-11-17,62,48,35,32,16,-13,87,37,4,30.44,30.38,30.33,10.0,10.0,10.0,9,3,16,0.00,0,,73
2012-11-18,64,52,41,37,27,14,66,40,26,30.42,30.36,30.30,10.0,10.0,10.0,12,4,17,0.00,2,,67
2012-11-19,64,48,33,37,34,28,87,57,31,30.33,30.27,30.19,10.0,9.4,4.0,5,1,,0.00,5,,348
2012-11-20,68,57,46,36,31,23,66,40,18,30.19,30.13,30.07,10.0,9.8,5.0,7,1,,0.00,2,,297
2012-11-21,71,54,37,36,32,23,81,48,17,30.18,30.14,30.10,10.0,10.0,7.0,7,1,,0.00,1,,308
2012-11-22,68,52,37,36,28,14,81,47,12,30.28,30.21,30.17,10.0,10.0,7.0,6,1,,0.00,0,,137
2012-11-23,69,53,37,41,34,27,81,53,23,30.19,30.13,30.05,10.0,9.8,7.0,13,3,23,0.00,1,,300
2012-11-24,46,39,32,27,16,1,69,42,16,30.17,30.12,30.08,10.0,10.0,10.0,14,6,21,0.00,0,,304
2012-11-25,53,40,28,18,6,-31,64,35,4,30.18,30.12,30.07,10.0,10.0,7.0,8,2,,0.00,0,,280
2012-11-26,64,48,32,25,4,-36,48,23,4,30.22,30.16,30.13,10.0,10.0,7.0,7,1,,0.00,2,,214
2012-11-27,53,47,41,46,40,18,87,74,24,30.23,30.16,30.12,10.0,7.1,1.5,9,2,,0.00,7,Rain,291
2012-11-28,57,46,33,34,29,19,87,61,23,30.37,30.31,30.22,10.0,7.8,2.0,8,3,,0.00,2,,294
2012-11-29,60,44,28,32,23,12,80,50,15,30.45,30.37,30.32,10.0,10.0,10.0,10,1,,0.00,0,,118
2012-11-30,60,46,33,39,32,25,81,57,34,30.39,30.33,30.28,10.0,9.8,5.0,5,1,,0.00,4,,70